createdAt,value
2023-05-07T00:01:03.824Z,25.8
2023-05-07T00:06:26.129Z,25.8
2023-05-07T00:12:03.595Z,25.8
2023-05-07T00:17:40.959Z,25.8
2023-05-07T00:23:18.708Z,25.7
2023-05-07T00:28:55.007Z,25.7
2023-05-07T00:34:48.110Z,25.7
2023-05-07T00:40:40.308Z,25.6
2023-05-07T00:46:16.941Z,25.7
2023-05-07T00:52:09.951Z,25.6
2023-05-07T00:58:00.763Z,25.6
2023-05-07T01:03:56.708Z,25.6
2023-05-07T01:09:53.270Z,25.6
2023-05-07T01:15:29.950Z,25.6
2023-05-07T01:21:22.097Z,25.6
2023-05-07T01:27:14.623Z,25.6
2023-05-07T01:33:06.639Z,25.6
2023-05-07T01:38:58.697Z,25.5
2023-05-07T01:44:51.498Z,25.5
2023-05-07T01:50:43.832Z,25.5
2023-05-07T01:56:35.543Z,25.4
2023-05-07T02:02:28.461Z,25.4
2023-05-07T02:08:20.459Z,25.4
2023-05-07T02:14:12.912Z,25.4
2023-05-07T02:20:05.355Z,25.4
2023-05-07T02:25:59.892Z,25.4
2023-05-07T02:31:51.893Z,25.4
2023-05-07T02:37:43.983Z,25.4
2023-05-07T02:43:35.380Z,25.4
2023-05-07T02:49:27.432Z,25.3
2023-05-07T02:55:22.040Z,25.3
2023-05-07T03:01:15.423Z,25.3
2023-05-07T03:07:07.977Z,25.3
2023-05-07T03:13:00.256Z,25.3
2023-05-07T03:18:52.641Z,25.3
2023-05-07T03:24:47.014Z,25.3
2023-05-07T03:30:39.178Z,25.3
2023-05-07T03:36:31.084Z,25.3
2023-05-07T03:42:24.713Z,25.2
2023-05-07T03:48:16.728Z,25.2
2023-05-07T03:54:08.770Z,25.2
2023-05-07T04:00:01.117Z,25.2
2023-05-07T04:05:54.920Z,25.2
2023-05-07T04:11:46.963Z,25.1
2023-05-07T04:17:39.671Z,25.1
2023-05-07T04:23:31.777Z,25.1
2023-05-07T04:29:23.944Z,25.1
2023-05-07T04:35:16.175Z,25.1
2023-05-07T04:41:08.200Z,25.1
2023-05-07T04:47:01.248Z,25.1
2023-05-07T04:52:53.110Z,25.1
2023-05-07T04:58:45.766Z,25.1
2023-05-07T05:04:39.138Z,25.1
2023-05-07T05:10:30.837Z,25.1
2023-05-07T05:16:23.923Z,25.1
2023-05-07T05:22:15.828Z,25.3
2023-05-07T05:28:06.948Z,25.3
2023-05-07T05:34:01.042Z,25.4
2023-05-07T05:39:52.754Z,25.4
2023-05-07T05:45:45.060Z,25.4
2023-05-07T05:51:24.408Z,19.4
2023-05-07T05:57:16.829Z,28.3
2023-05-07T06:03:09.529Z,27.7
2023-05-07T06:09:01.392Z,27.3
2023-05-07T06:14:53.463Z,34.8
2023-05-07T06:20:45.540Z,34
2023-05-07T06:26:39.778Z,34.5
2023-05-07T06:32:30.732Z,35.3
2023-05-07T06:38:24.103Z,35.7
2023-05-07T06:44:15.771Z,36.3
2023-05-07T06:50:08.753Z,37.1
2023-05-07T06:55:46.580Z,37.9
2023-05-07T07:01:38.955Z,38.8
2023-05-07T07:07:31.561Z,39.6
2023-05-07T07:13:24.211Z,40.4
2023-05-07T07:19:17.517Z,41.4
2023-05-07T07:25:11.141Z,42.2
2023-05-07T07:31:04.530Z,43.1
2023-05-07T07:37:08.444Z,43.7
2023-05-07T07:43:01.532Z,44.3
2023-05-07T07:48:55.461Z,44.9
2023-05-07T07:55:06.504Z,45.6
2023-05-07T08:01:04.372Z,46.3
2023-05-07T08:06:48.353Z,46.9
2023-05-07T08:12:42.629Z,47.1
2023-05-07T08:18:36.649Z,47.8
2023-05-07T08:24:31.471Z,48.4
2023-05-07T08:30:26.699Z,48.9
2023-05-07T08:36:22.226Z,49.6
2023-05-07T08:42:18.527Z,50
2023-05-07T08:48:13.705Z,50.6
2023-05-07T08:54:07.554Z,51.3
2023-05-07T09:00:02.416Z,51.8
2023-05-07T09:11:39.465Z,50.8
2023-05-07T09:17:18.661Z,51.5
2023-05-07T09:23:15.147Z,52.3
2023-05-07T09:29:12.834Z,53.1
2023-05-07T09:35:09.124Z,53.9
2023-05-07T09:41:06.832Z,54.6
2023-05-07T09:47:00.067Z,55.3
2023-05-07T09:52:53.988Z,56.1
2023-05-07T09:58:51.277Z,54.6
2023-05-07T10:04:47.851Z,53.8
2023-05-07T10:10:41.746Z,55.1
2023-05-07T10:16:37.375Z,55.3
2023-05-07T10:22:33.557Z,56.4
2023-05-07T10:28:30.028Z,56.8
2023-05-07T10:34:26.073Z,56.7
2023-05-07T10:40:21.193Z,58.1
2023-05-07T10:46:00.005Z,58.3
2023-05-07T10:57:52.254Z,59
2023-05-07T11:04:04.194Z,59.2
2023-05-07T11:09:59.120Z,59.5
2023-05-07T11:15:53.153Z,59.8
2023-05-07T11:21:50.612Z,59.9
2023-05-07T11:27:48.669Z,60.1
2023-05-07T11:33:42.707Z,60.3
2023-05-07T11:39:21.748Z,60.3
2023-05-07T11:45:20.860Z,60.4
2023-05-07T11:51:15.374Z,60.5
2023-05-07T11:57:11.845Z,60.6
2023-05-07T12:03:06.425Z,60.7
2023-05-07T12:09:04.154Z,60.8
2023-05-07T12:14:44.888Z,60.9
2023-05-07T12:20:23.178Z,61
2023-05-07T12:25:46.023Z,61.1
2023-05-07T12:31:25.479Z,61.1
2023-05-07T12:37:19.600Z,60.9
2023-05-07T12:43:14.849Z,60.8
2023-05-07T12:48:54.482Z,60.8
2023-05-07T12:54:32.787Z,60.7
2023-05-07T13:00:10.122Z,60.4
2023-05-07T13:05:50.836Z,60.3
2023-05-07T13:11:29.570Z,60
2023-05-07T13:17:11.855Z,59.8
2023-05-07T13:23:06.736Z,59.5
2023-05-07T13:29:12.996Z,56.9
2023-05-07T13:35:07.235Z,57.7
2023-05-07T13:41:01.619Z,57.8
2023-05-07T13:46:54.205Z,57.6
2023-05-07T13:52:47.013Z,57.3
2023-05-07T13:58:24.166Z,57
2023-05-07T14:04:17.413Z,56.6
2023-05-07T14:10:10.198Z,56.1
2023-05-07T14:16:04.877Z,55.7
2023-05-07T14:22:00.048Z,55.3
2023-05-07T14:28:08.969Z,54.8
2023-05-07T14:34:01.539Z,54.3
2023-05-07T14:39:53.473Z,53.6
2023-05-07T14:45:46.543Z,52.9
2023-05-07T14:51:37.882Z,52.2
2023-05-07T14:57:32.693Z,51.6
2023-05-07T15:03:28.285Z,50.9
2023-05-07T15:09:20.401Z,50.3
2023-05-07T15:15:12.800Z,47.4
2023-05-07T15:21:08.021Z,45.6
2023-05-07T15:26:59.922Z,44.3
2023-05-07T15:32:53.816Z,43.5
2023-05-07T15:38:45.923Z,42.8
2023-05-07T15:44:37.389Z,42.3
2023-05-07T15:50:29.752Z,41.9
2023-05-07T15:56:22.618Z,41.6
2023-05-07T16:02:15.295Z,41.4
2023-05-07T16:08:09.078Z,41.1
2023-05-07T16:14:01.934Z,40.8
2023-05-07T16:19:56.168Z,40.4
2023-05-07T16:25:48.343Z,39.1
2023-05-07T16:31:39.517Z,38.9
2023-05-07T16:37:33.419Z,33.5
2023-05-07T16:43:28.206Z,32.8
2023-05-07T16:49:04.337Z,30.6
2023-05-07T16:54:41.625Z,31.4
2023-05-07T17:00:42.532Z,30.3
2023-05-07T17:06:42.763Z,32.3
2023-05-07T17:12:36.375Z,34
2023-05-07T17:18:28.657Z,35
2023-05-07T17:24:19.947Z,35.6
2023-05-07T17:30:11.729Z,35.9
2023-05-07T17:36:21.019Z,36.1
2023-05-07T17:41:56.849Z,36.2
2023-05-07T17:47:48.610Z,36.2
2023-05-07T17:53:49.661Z,36.2
2023-05-07T17:59:38.128Z,36.1
2023-05-07T18:05:30.940Z,36
2023-05-07T18:11:07.348Z,35.9
2023-05-07T18:16:59.146Z,35.9
2023-05-07T18:22:52.771Z,35.8
2023-05-07T18:28:44.660Z,35.8
2023-05-07T18:34:24.557Z,35.7
2023-05-07T18:40:16.595Z,35.6
2023-05-07T18:46:08.397Z,35.6
2023-05-07T18:52:01.131Z,35.5
2023-05-07T18:57:37.187Z,35.4
2023-05-07T19:03:28.209Z,35.2
2023-05-07T19:09:20.612Z,35.1
2023-05-07T19:15:26.833Z,34.9
2023-05-07T19:21:19.523Z,34.8
2023-05-07T19:27:11.950Z,34.7
2023-05-07T19:33:24.897Z,34.6
2023-05-07T19:39:02.093Z,34.6
2023-05-07T19:44:55.366Z,34.4
2023-05-07T19:50:50.915Z,34.3
2023-05-07T19:56:45.248Z,34.2
2023-05-07T20:02:38.903Z,34.1
2023-05-07T20:08:17.330Z,34.1
2023-05-07T20:13:54.571Z,34
2023-05-07T20:19:49.212Z,33.9
2023-05-07T20:25:27.424Z,33.9
2023-05-07T20:31:19.289Z,33.9
2023-05-07T20:37:11.575Z,33.8
2023-05-07T20:43:03.537Z,33.8
2023-05-07T20:48:58.737Z,33.8
2023-05-07T20:54:53.158Z,33.7
2023-05-07T21:00:45.566Z,33.7
2023-05-07T21:06:38.291Z,33.6
2023-05-07T21:12:30.092Z,33.6
2023-05-07T21:18:22.058Z,33.6
2023-05-07T21:24:14.069Z,33.5
2023-05-07T21:30:05.893Z,33.5
2023-05-07T21:35:43.247Z,33.5
2023-05-07T21:41:35.540Z,33.4
2023-05-07T21:47:27.618Z,33.4
2023-05-07T21:53:19.060Z,33.4
2023-05-07T21:59:26.219Z,33.4
2023-05-07T22:05:19.420Z,33.3
2023-05-07T22:11:10.709Z,33.3
2023-05-07T22:17:15.945Z,33.3
2023-05-07T22:23:09.081Z,33.2
2023-05-07T22:29:00.214Z,33.2
2023-05-07T22:34:39.804Z,33.2
2023-05-07T22:40:31.781Z,33.1
2023-05-07T22:46:24.208Z,33.1
2023-05-07T22:52:16.856Z,33.1
2023-05-07T22:58:08.290Z,33.1
2023-05-07T23:04:00.448Z,33
2023-05-07T23:09:51.886Z,33
2023-05-07T23:15:46.343Z,33
2023-05-07T23:21:38.435Z,32.9
2023-05-07T23:27:30.469Z,32.9
2023-05-07T23:33:22.928Z,32.9
2023-05-07T23:39:13.959Z,32.9
2023-05-07T23:45:05.076Z,32.8
2023-05-07T23:50:56.354Z,32.8
2023-05-07T23:56:46.799Z,32.8
